sensor_id;sensor_type;location;lat;lon;timestamp;pressure;altitude;pressure_sealevel;temperature;humidity
10510;BME280;5303;53.266;10.410;2023-06-19T00:00:34;100955.50;;;20.44;53.82
10510;BME280;5303;53.266;10.410;2023-06-19T00:02:59;100958.31;;;20.39;54.15
10510;BME280;5303;53.266;10.410;2023-06-19T00:05:24;100950.28;;;20.39;53.66
10510;BME280;5303;53.266;10.410;2023-06-19T00:07:50;100956.59;;;20.38;53.53
10510;BME280;5303;53.266;10.410;2023-06-19T00:10:15;100963.69;;;20.39;53.15
10510;BME280;5303;53.266;10.410;2023-06-19T00:12:41;100951.97;;;20.41;52.93
10510;BME280;5303;53.266;10.410;2023-06-19T00:15:07;100954.50;;;20.46;52.69
10510;BME280;5303;53.266;10.410;2023-06-19T00:17:34;100963.56;;;20.42;52.77
10510;BME280;5303;53.266;10.410;2023-06-19T00:20:05;100956.38;;;20.44;52.73
10510;BME280;5303;53.266;10.410;2023-06-19T00:22:31;100949.63;;;20.56;52.12
10510;BME280;5303;53.266;10.410;2023-06-19T00:24:57;100942.56;;;20.53;52.08
10510;BME280;5303;53.266;10.410;2023-06-19T00:27:22;100949.13;;;20.46;52.27
10510;BME280;5303;53.266;10.410;2023-06-19T00:29:50;100944.78;;;20.42;52.41
10510;BME280;5303;53.266;10.410;2023-06-19T00:32:16;100944.19;;;20.35;52.96
10510;BME280;5303;53.266;10.410;2023-06-19T00:34:41;100951.47;;;20.32;53.06
10510;BME280;5303;53.266;10.410;2023-06-19T00:37:08;100944.44;;;20.29;53.80
10510;BME280;5303;53.266;10.410;2023-06-19T00:39:35;100944.56;;;20.26;54.01
10510;BME280;5303;53.266;10.410;2023-06-19T00:42:00;100941.13;;;20.23;54.28
10510;BME280;5303;53.266;10.410;2023-06-19T00:44:26;100943.94;;;20.20;54.23
10510;BME280;5303;53.266;10.410;2023-06-19T00:46:57;100946.75;;;20.17;54.52
10510;BME280;5303;53.266;10.410;2023-06-19T00:49:22;100940.47;;;20.18;54.39
10510;BME280;5303;53.266;10.410;2023-06-19T00:51:51;100939.50;;;20.19;54.10
10510;BME280;5303;53.266;10.410;2023-06-19T00:54:16;100938.66;;;20.18;53.99
10510;BME280;5303;53.266;10.410;2023-06-19T00:56:42;100933.22;;;20.20;53.85
10510;BME280;5303;53.266;10.410;2023-06-19T00:59:17;100930.41;;;20.23;53.49
10510;BME280;5303;53.266;10.410;2023-06-19T01:01:45;100920.75;;;20.19;53.73
10510;BME280;5303;53.266;10.410;2023-06-19T01:04:12;100916.34;;;20.18;53.82
10510;BME280;5303;53.266;10.410;2023-06-19T01:06:44;100919.09;;;20.16;54.30
10510;BME280;5303;53.266;10.410;2023-06-19T01:09:13;100911.13;;;20.14;54.51
10510;BME280;5303;53.266;10.410;2023-06-19T01:11:55;100916.47;;;20.14;54.52
10510;BME280;5303;53.266;10.410;2023-06-19T01:14:26;100911.13;;;20.14;54.24
10510;BME280;5303;53.266;10.410;2023-06-19T01:16:53;100902.16;;;20.16;54.15
10510;BME280;5303;53.266;10.410;2023-06-19T01:19:20;100896.78;;;20.16;53.88
10510;BME280;5303;53.266;10.410;2023-06-19T01:21:46;100885.00;;;20.20;53.77
10510;BME280;5303;53.266;10.410;2023-06-19T01:24:12;100882.47;;;20.17;54.09
10510;BME280;5303;53.266;10.410;2023-06-19T01:26:37;100878.13;;;20.14;54.06
10510;BME280;5303;53.266;10.410;2023-06-19T01:29:03;100881.75;;;20.11;54.04
10510;BME280;5303;53.266;10.410;2023-06-19T01:31:54;100880.81;;;20.12;53.81
10510;BME280;5303;53.266;10.410;2023-06-19T01:34:20;100883.47;;;20.14;53.60
10510;BME280;5303;53.266;10.410;2023-06-19T01:36:47;100883.47;;;20.14;53.59
10510;BME280;5303;53.266;10.410;2023-06-19T01:39:14;100884.44;;;20.11;53.94
10510;BME280;5303;53.266;10.410;2023-06-19T01:41:40;100882.59;;;20.13;54.93
10510;BME280;5303;53.266;10.410;2023-06-19T01:44:08;100882.84;;;20.07;54.83
10510;BME280;5303;53.266;10.410;2023-06-19T01:46:33;100882.09;;;20.04;55.17
10510;BME280;5303;53.266;10.410;2023-06-19T01:48:58;100879.59;;;19.99;55.12
10510;BME280;5303;53.266;10.410;2023-06-19T01:51:24;100878.72;;;19.99;55.53
10510;BME280;5303;53.266;10.410;2023-06-19T01:53:49;100883.44;;;19.92;56.04
10510;BME280;5303;53.266;10.410;2023-06-19T01:56:15;100864.03;;;19.87;56.42
10510;BME280;5303;53.266;10.410;2023-06-19T01:58:40;100867.78;;;19.83;56.59
10510;BME280;5303;53.266;10.410;2023-06-19T02:01:05;100865.16;;;19.81;56.76
10510;BME280;5303;53.266;10.410;2023-06-19T02:03:31;100854.50;;;19.80;56.77
10510;BME280;5303;53.266;10.410;2023-06-19T02:05:56;100857.19;;;19.80;56.15
10510;BME280;5303;53.266;10.410;2023-06-19T02:08:21;100855.44;;;19.79;56.20
10510;BME280;5303;53.266;10.410;2023-06-19T02:10:46;100855.44;;;19.79;56.30
10510;BME280;5303;53.266;10.410;2023-06-19T02:13:12;100859.00;;;19.79;56.54
10510;BME280;5303;53.266;10.410;2023-06-19T02:15:37;100859.00;;;19.79;56.78
10510;BME280;5303;53.266;10.410;2023-06-19T02:18:03;100863.47;;;19.79;57.09
10510;BME280;5303;53.266;10.410;2023-06-19T02:20:29;100855.50;;;19.77;57.29
10510;BME280;5303;53.266;10.410;2023-06-19T02:22:54;100852.91;;;19.76;57.41
10510;BME280;5303;53.266;10.410;2023-06-19T02:25:20;100845.88;;;19.73;57.28
10510;BME280;5303;53.266;10.410;2023-06-19T02:27:46;100852.97;;;19.74;56.71
10510;BME280;5303;53.266;10.410;2023-06-19T02:30:11;100853.03;;;19.73;56.71
10510;BME280;5303;53.266;10.410;2023-06-19T02:32:36;100857.44;;;19.74;57.05
10510;BME280;5303;53.266;10.410;2023-06-19T02:35:04;100857.44;;;19.74;57.28
10510;BME280;5303;53.266;10.410;2023-06-19T02:37:29;100859.06;;;19.78;56.85
10510;BME280;5303;53.266;10.410;2023-06-19T02:39:55;100856.38;;;19.78;56.62
10510;BME280;5303;53.266;10.410;2023-06-19T02:42:20;100855.56;;;19.76;56.65
10510;BME280;5303;53.266;10.410;2023-06-19T02:44:45;100860.78;;;19.79;56.02
10510;BME280;5303;53.266;10.410;2023-06-19T02:47:11;100867.78;;;19.83;55.58
10510;BME280;5303;53.266;10.410;2023-06-19T02:49:36;100855.19;;;19.85;55.44
10510;BME280;5303;53.266;10.410;2023-06-19T02:52:01;100863.09;;;19.88;55.13
10510;BME280;5303;53.266;10.410;2023-06-19T02:54:26;100860.28;;;19.91;54.88
10510;BME280;5303;53.266;10.410;2023-06-19T02:56:52;100847.72;;;19.93;54.80
10510;BME280;5303;53.266;10.410;2023-06-19T02:59:17;100843.97;;;19.97;54.36
10510;BME280;5303;53.266;10.410;2023-06-19T03:01:42;100840.38;;;19.98;54.52
10510;BME280;5303;53.266;10.410;2023-06-19T03:04:07;100842.09;;;19.99;54.05
10510;BME280;5303;53.266;10.410;2023-06-19T03:06:33;100835.56;;;20.06;52.76
10510;BME280;5303;53.266;10.410;2023-06-19T03:09:06;100841.88;;;20.05;53.09
10510;BME280;5303;53.266;10.410;2023-06-19T03:11:40;100839.19;;;20.05;53.48
10510;BME280;5303;53.266;10.410;2023-06-19T03:14:06;100840.00;;;20.07;53.69
10510;BME280;5303;53.266;10.410;2023-06-19T03:16:33;100842.66;;;20.07;53.28
10510;BME280;5303;53.266;10.410;2023-06-19T03:18:59;100838.25;;;20.06;53.26
10510;BME280;5303;53.266;10.410;2023-06-19T03:21:24;100838.25;;;20.06;53.55
10510;BME280;5303;53.266;10.410;2023-06-19T03:23:50;100835.50;;;20.08;53.93
10510;BME280;5303;53.266;10.410;2023-06-19T03:26:15;100832.03;;;20.06;54.04
10510;BME280;5303;53.266;10.410;2023-06-19T03:28:40;100838.25;;;20.06;53.88
10510;BME280;5303;53.266;10.410;2023-06-19T03:31:05;100835.56;;;20.06;53.79
10510;BME280;5303;53.266;10.410;2023-06-19T03:33:31;100836.38;;;20.08;53.88
10510;BME280;5303;53.266;10.410;2023-06-19T03:35:56;100831.00;;;20.08;53.86
10510;BME280;5303;53.266;10.410;2023-06-19T03:38:22;100829.13;;;20.10;53.63
10510;BME280;5303;53.266;10.410;2023-06-19T03:40:47;100831.50;;;20.18;52.17
10510;BME280;5303;53.266;10.410;2023-06-19T03:43:12;100825.75;;;20.27;52.11
10510;BME280;5303;53.266;10.410;2023-06-19T03:45:38;100818.25;;;20.35;51.68
10510;BME280;5303;53.266;10.410;2023-06-19T03:48:03;100822.47;;;20.41;53.48
10510;BME280;5303;53.266;10.410;2023-06-19T03:50:29;100819.13;;;20.36;54.06
10510;BME280;5303;53.266;10.410;2023-06-19T03:52:54;100812.44;;;20.26;53.98
10510;BME280;5303;53.266;10.410;2023-06-19T03:55:19;100812.81;;;20.17;55.04
10510;BME280;5303;53.266;10.410;2023-06-19T03:57:45;100818.31;;;20.13;55.11
10510;BME280;5303;53.266;10.410;2023-06-19T04:00:10;100812.19;;;20.10;55.42
10510;BME280;5303;53.266;10.410;2023-06-19T04:02:38;100814.94;;;20.08;54.93
10510;BME280;5303;53.266;10.410;2023-06-19T04:05:04;100809.59;;;20.08;54.72
10510;BME280;5303;53.266;10.410;2023-06-19T04:07:29;100809.72;;;20.05;54.67
10510;BME280;5303;53.266;10.410;2023-06-19T04:09:56;100805.38;;;20.03;54.20
10510;BME280;5303;53.266;10.410;2023-06-19T04:12:21;100805.47;;;20.00;54.42
10510;BME280;5303;53.266;10.410;2023-06-19T04:14:47;100813.59;;;19.98;54.73
10510;BME280;5303;53.266;10.410;2023-06-19T04:17:13;100812.00;;;19.94;55.16
10510;BME280;5303;53.266;10.410;2023-06-19T04:19:39;100815.72;;;19.90;56.01
10510;BME280;5303;53.266;10.410;2023-06-19T04:22:05;100819.31;;;19.89;56.31
10510;BME280;5303;53.266;10.410;2023-06-19T04:24:31;100812.09;;;19.91;56.05
10510;BME280;5303;53.266;10.410;2023-06-19T04:26:56;100815.63;;;19.92;56.15
10510;BME280;5303;53.266;10.410;2023-06-19T04:29:21;100815.72;;;19.90;56.51
10510;BME280;5303;53.266;10.410;2023-06-19T04:31:47;100820.97;;;19.93;56.71
10510;BME280;5303;53.266;10.410;2023-06-19T04:34:16;100819.75;;;20.00;56.54
10510;BME280;5303;53.266;10.410;2023-06-19T04:36:41;100812.66;;;19.99;56.58
10510;BME280;5303;53.266;10.410;2023-06-19T04:39:07;100808.06;;;20.03;55.82
10510;BME280;5303;53.266;10.410;2023-06-19T04:41:32;100810.72;;;20.03;55.88
10510;BME280;5303;53.266;10.410;2023-06-19T04:43:57;100814.22;;;20.05;55.88
10510;BME280;5303;53.266;10.410;2023-06-19T04:46:23;100809.59;;;20.08;54.75
10510;BME280;5303;53.266;10.410;2023-06-19T04:48:48;100809.44;;;20.11;54.35
10510;BME280;5303;53.266;10.410;2023-06-19T04:51:17;100806.53;;;20.18;53.58
10510;BME280;5303;53.266;10.410;2023-06-19T04:53:46;100804.31;;;20.27;53.19
10510;BME280;5303;53.266;10.410;2023-06-19T04:56:11;100800.91;;;20.24;53.79
10510;BME280;5303;53.266;10.410;2023-06-19T04:58:37;100801.03;;;20.21;54.64
10510;BME280;5303;53.266;10.410;2023-06-19T05:01:09;100805.66;;;20.17;55.20
10510;BME280;5303;53.266;10.410;2023-06-19T05:03:35;100808.94;;;20.24;54.63
10510;BME280;5303;53.266;10.410;2023-06-19T05:06:00;100809.06;;;20.21;55.41
10510;BME280;5303;53.266;10.410;2023-06-19T05:08:26;100801.97;;;20.20;55.29
10510;BME280;5303;53.266;10.410;2023-06-19T05:10:51;100806.28;;;20.24;55.34
10510;BME280;5303;53.266;10.410;2023-06-19T05:13:16;100802.75;;;20.22;55.27
10510;BME280;5303;53.266;10.410;2023-06-19T05:15:43;100806.28;;;20.24;55.11
10510;BME280;5303;53.266;10.410;2023-06-19T05:18:08;100805.19;;;20.28;54.90
10510;BME280;5303;53.266;10.410;2023-06-19T05:20:33;100801.44;;;20.32;54.22
10510;BME280;5303;53.266;10.410;2023-06-19T05:22:59;100802.25;;;20.34;54.24
10510;BME280;5303;53.266;10.410;2023-06-19T05:25:24;100805.50;;;20.40;53.03
10510;BME280;5303;53.266;10.410;2023-06-19T05:27:49;100810.72;;;20.45;53.17
10510;BME280;5303;53.266;10.410;2023-06-19T05:30:15;100816.75;;;20.50;52.93
10510;BME280;5303;53.266;10.410;2023-06-19T05:32:40;100820.09;;;20.55;52.89
10510;BME280;5303;53.266;10.410;2023-06-19T05:35:05;100807.34;;;20.60;52.63
10510;BME280;5303;53.266;10.410;2023-06-19T05:37:31;100801.56;;;20.69;51.78
10510;BME280;5303;53.266;10.410;2023-06-19T05:39:56;100808.69;;;20.70;52.11
10510;BME280;5303;53.266;10.410;2023-06-19T05:42:22;100814.31;;;20.85;51.39
10510;BME280;5303;53.266;10.410;2023-06-19T05:44:47;100817.09;;;20.82;51.31
10510;BME280;5303;53.266;10.410;2023-06-19T05:47:12;100828.91;;;20.78;51.88
10510;BME280;5303;53.266;10.410;2023-06-19T05:49:39;100825.53;;;20.74;52.16
10510;BME280;5303;53.266;10.410;2023-06-19T05:52:06;100827.25;;;20.75;51.40
10510;BME280;5303;53.266;10.410;2023-06-19T05:54:31;100833.59;;;20.73;52.24
10510;BME280;5303;53.266;10.410;2023-06-19T05:56:57;100838.38;;;20.66;52.45
10510;BME280;5303;53.266;10.410;2023-06-19T05:59:22;100849.56;;;20.76;51.04
10510;BME280;5303;53.266;10.410;2023-06-19T06:01:47;100848.75;;;20.74;51.28
10510;BME280;5303;53.266;10.410;2023-06-19T06:04:12;100856.91;;;20.91;50.97
10510;BME280;5303;53.266;10.410;2023-06-19T06:06:38;100859.75;;;20.88;51.22
10510;BME280;5303;53.266;10.410;2023-06-19T06:09:04;100863.00;;;20.94;50.44
10510;BME280;5303;53.266;10.410;2023-06-19T06:11:30;100861.72;;;21.03;50.00
10510;BME280;5303;53.266;10.410;2023-06-19T06:13:55;100863.53;;;21.03;51.02
10510;BME280;5303;53.266;10.410;2023-06-19T06:16:20;100867.09;;;21.03;51.28
10510;BME280;5303;53.266;10.410;2023-06-19T06:18:45;100861.88;;;21.00;51.50
10510;BME280;5303;53.266;10.410;2023-06-19T06:21:11;100861.53;;;21.08;50.76
10510;BME280;5303;53.266;10.410;2023-06-19T06:23:38;100862.63;;;21.22;50.56
10510;BME280;5303;53.266;10.410;2023-06-19T06:26:03;100868.13;;;21.19;50.61
10510;BME280;5303;53.266;10.410;2023-06-19T06:28:28;100865.72;;;21.13;50.76
10510;BME280;5303;53.266;10.410;2023-06-19T06:30:54;100874.72;;;21.12;50.96
10510;BME280;5303;53.266;10.410;2023-06-19T06:33:20;100874.13;;;21.06;51.06
10510;BME280;5303;53.266;10.410;2023-06-19T06:35:45;100867.38;;;20.97;51.53
10510;BME280;5303;53.266;10.410;2023-06-19T06:38:10;100875.34;;;20.98;51.59
10510;BME280;5303;53.266;10.410;2023-06-19T06:40:36;100875.44;;;20.97;51.69
10510;BME280;5303;53.266;10.410;2023-06-19T06:43:01;100867.22;;;21.00;51.55
10510;BME280;5303;53.266;10.410;2023-06-19T06:45:26;100876.75;;;21.07;51.25
10510;BME280;5303;53.266;10.410;2023-06-19T06:47:52;100872.53;;;21.02;51.74
10510;BME280;5303;53.266;10.410;2023-06-19T06:50:17;100867.22;;;21.00;52.31
10510;BME280;5303;53.266;10.410;2023-06-19T06:52:42;100869.84;;;21.02;52.28
10510;BME280;5303;53.266;10.410;2023-06-19T06:55:08;100871.47;;;21.06;52.54
10510;BME280;5303;53.266;10.410;2023-06-19T06:57:33;100869.66;;;21.06;52.86
10510;BME280;5303;53.266;10.410;2023-06-19T06:59:58;100873.13;;;21.08;53.08
10510;BME280;5303;53.266;10.410;2023-06-19T07:02:24;100865.78;;;21.12;54.66
10510;BME280;5303;53.266;10.410;2023-06-19T07:04:49;100866.03;;;21.07;55.35
10510;BME280;5303;53.266;10.410;2023-06-19T07:07:14;100869.91;;;21.00;56.53
10510;BME280;5303;53.266;10.410;2023-06-19T07:09:40;100871.81;;;20.98;57.36
10510;BME280;5303;53.266;10.410;2023-06-19T07:12:05;100861.75;;;21.22;55.89
10510;BME280;5303;53.266;10.410;2023-06-19T07:16:57;100850.69;;;21.30;56.53
10510;BME280;5303;53.266;10.410;2023-06-19T07:19:22;100841.53;;;21.34;55.22
10510;BME280;5303;53.266;10.410;2023-06-19T07:21:50;100849.09;;;21.25;55.73
10510;BME280;5303;53.266;10.410;2023-06-19T07:24:15;100851.00;;;21.22;55.86
10510;BME280;5303;53.266;10.410;2023-06-19T07:26:41;100843.84;;;21.22;56.59
10510;BME280;5303;53.266;10.410;2023-06-19T07:29:06;100853.91;;;21.38;53.96
10510;BME280;5303;53.266;10.410;2023-06-19T07:31:31;100848.22;;;21.44;54.04
10510;BME280;5303;53.266;10.410;2023-06-19T07:33:56;100844.47;;;21.48;55.03
10510;BME280;5303;53.266;10.410;2023-06-19T07:36:22;100851.84;;;21.62;54.15
10510;BME280;5303;53.266;10.410;2023-06-19T07:38:47;100854.88;;;21.73;53.25
10510;BME280;5303;53.266;10.410;2023-06-19T07:41:12;100847.25;;;21.82;52.40
10510;BME280;5303;53.266;10.410;2023-06-19T07:43:38;100849.22;;;21.79;53.14
10510;BME280;5303;53.266;10.410;2023-06-19T07:46:03;100848.34;;;21.78;53.09
10510;BME280;5303;53.266;10.410;2023-06-19T07:48:29;100849.84;;;21.84;52.33
10510;BME280;5303;53.266;10.410;2023-06-19T07:50:54;100842.94;;;21.97;51.89
10510;BME280;5303;53.266;10.410;2023-06-19T07:53:21;100852.22;;;22.26;50.82
10510;BME280;5303;53.266;10.410;2023-06-19T07:55:46;100846.81;;;22.28;51.13
10510;BME280;5303;53.266;10.410;2023-06-19T07:58:11;100849.88;;;22.20;51.51
10510;BME280;5303;53.266;10.410;2023-06-19T08:00:37;100845.06;;;22.61;49.62
10510;BME280;5303;53.266;10.410;2023-06-19T08:03:02;100847.97;;;22.57;50.32
10510;BME280;5303;53.266;10.410;2023-06-19T08:05:27;100849.19;;;22.51;50.90
10510;BME280;5303;53.266;10.410;2023-06-19T08:07:53;100843.53;;;22.56;51.85
10510;BME280;5303;53.266;10.410;2023-06-19T08:10:18;100839.41;;;22.66;51.35
10510;BME280;5303;53.266;10.410;2023-06-19T08:12:44;100830.69;;;22.78;50.27
10510;BME280;5303;53.266;10.410;2023-06-19T08:15:10;100838.41;;;22.86;50.48
10510;BME280;5303;53.266;10.410;2023-06-19T08:17:36;100841.16;;;22.84;50.01
10510;BME280;5303;53.266;10.410;2023-06-19T08:20:02;100839.50;;;22.64;50.86
10510;BME280;5303;53.266;10.410;2023-06-19T08:22:30;100845.34;;;22.73;51.06
10510;BME280;5303;53.266;10.410;2023-06-19T08:24:55;100854.59;;;22.67;52.08
10510;BME280;5303;53.266;10.410;2023-06-19T08:27:21;100848.66;;;22.78;51.15
10510;BME280;5303;53.266;10.410;2023-06-19T08:29:46;100846.56;;;22.84;51.18
10510;BME280;5303;53.266;10.410;2023-06-19T08:32:11;100845.97;;;22.95;51.03
10510;BME280;5303;53.266;10.410;2023-06-19T08:34:36;100837.31;;;23.06;50.86
10510;BME280;5303;53.266;10.410;2023-06-19T08:37:03;100846.13;;;23.09;51.32
10510;BME280;5303;53.266;10.410;2023-06-19T08:39:29;100837.31;;;23.06;52.11
10510;BME280;5303;53.266;10.410;2023-06-19T08:41:54;100839.78;;;23.10;51.68
10510;BME280;5303;53.266;10.410;2023-06-19T08:44:19;100844.88;;;22.99;52.30
10510;BME280;5303;53.266;10.410;2023-06-19T08:46:45;100844.50;;;22.89;52.60
10510;BME280;5303;53.266;10.410;2023-06-19T08:49:10;100840.59;;;22.95;52.03
10510;BME280;5303;53.266;10.410;2023-06-19T08:51:36;100844.66;;;22.86;52.92
10510;BME280;5303;53.266;10.410;2023-06-19T08:54:06;100853.50;;;22.88;52.98
10510;BME280;5303;53.266;10.410;2023-06-19T08:56:32;100852.00;;;23.00;52.14
10510;BME280;5303;53.266;10.410;2023-06-19T08:59:17;100857.41;;;23.16;52.08
10510;BME280;5303;53.266;10.410;2023-06-19T09:01:50;100861.50;;;23.39;50.90
10510;BME280;5303;53.266;10.410;2023-06-19T09:04:24;100867.41;;;23.63;49.76
10510;BME280;5303;53.266;10.410;2023-06-19T09:06:55;100861.28;;;24.06;48.24
10510;BME280;5303;53.266;10.410;2023-06-19T09:09:24;100859.91;;;24.29;47.34
10510;BME280;5303;53.266;10.410;2023-06-19T09:11:59;100855.84;;;24.38;47.19
10510;BME280;5303;53.266;10.410;2023-06-19T09:14:51;100852.19;;;24.39;48.32
10510;BME280;5303;53.266;10.410;2023-06-19T09:17:20;100855.88;;;24.52;48.11
10510;BME280;5303;53.266;10.410;2023-06-19T09:19:50;100859.94;;;24.59;48.06
10510;BME280;5303;53.266;10.410;2023-06-19T09:22:17;100851.28;;;24.68;47.99
10510;BME280;5303;53.266;10.410;2023-06-19T09:24:46;100856.13;;;24.78;47.21
10510;BME280;5303;53.266;10.410;2023-06-19T09:27:16;100841.84;;;24.90;47.29
10510;BME280;5303;53.266;10.410;2023-06-19T09:29:49;100853.66;;;25.03;45.94
10510;BME280;5303;53.266;10.410;2023-06-19T09:34:42;100856.94;;;25.37;45.46
10510;BME280;5303;53.266;10.410;2023-06-19T09:37:08;100852.44;;;25.78;43.37
10510;BME280;5303;53.266;10.410;2023-06-19T09:39:38;100853.41;;;25.77;44.08
10510;BME280;5303;53.266;10.410;2023-06-19T09:42:06;100860.06;;;25.86;44.06
10510;BME280;5303;53.266;10.410;2023-06-19T09:44:39;100861.53;;;25.77;45.62
10510;BME280;5303;53.266;10.410;2023-06-19T09:47:14;100857.03;;;25.91;44.44
10510;BME280;5303;53.266;10.410;2023-06-19T09:49:46;100852.66;;;25.75;45.80
10510;BME280;5303;53.266;10.410;2023-06-19T09:52:13;100847.56;;;25.98;44.97
10510;BME280;5303;53.266;10.410;2023-06-19T09:54:39;100850.09;;;26.13;45.42
10510;BME280;5303;53.266;10.410;2023-06-19T09:57:05;100847.44;;;26.26;44.81
10510;BME280;5303;53.266;10.410;2023-06-19T09:59:31;100844.63;;;26.28;45.70
10510;BME280;5303;53.266;10.410;2023-06-19T10:01:56;100845.66;;;26.39;45.05
10510;BME280;5303;53.266;10.410;2023-06-19T10:04:23;100842.72;;;26.42;45.09
10510;BME280;5303;53.266;10.410;2023-06-19T10:06:48;100845.56;;;26.54;44.86
10510;BME280;5303;53.266;10.410;2023-06-19T10:09:15;100842.44;;;26.60;44.88
10510;BME280;5303;53.266;10.410;2023-06-19T10:11:45;100834.00;;;26.77;44.48
10510;BME280;5303;53.266;10.410;2023-06-19T10:14:11;100838.88;;;26.97;44.38
10510;BME280;5303;53.266;10.410;2023-06-19T10:16:37;100832.81;;;27.07;43.38
10510;BME280;5303;53.266;10.410;2023-06-19T10:19:14;100845.78;;;27.27;43.72
10510;BME280;5303;53.266;10.410;2023-06-19T10:21:48;100845.41;;;27.57;41.37
10510;BME280;5303;53.266;10.410;2023-06-19T10:24:15;100838.81;;;27.48;41.10
10510;BME280;5303;53.266;10.410;2023-06-19T10:26:41;100837.38;;;27.55;41.17
10510;BME280;5303;53.266;10.410;2023-06-19T10:29:16;100830.16;;;27.43;42.25
10510;BME280;5303;53.266;10.410;2023-06-19T10:31:42;100838.91;;;27.60;41.05
10510;BME280;5303;53.266;10.410;2023-06-19T10:34:09;100830.47;;;27.51;41.48
10510;BME280;5303;53.266;10.410;2023-06-19T10:36:34;100829.72;;;27.49;42.29
10510;BME280;5303;53.266;10.410;2023-06-19T10:38:59;100828.38;;;27.55;42.37
10510;BME280;5303;53.266;10.410;2023-06-19T10:41:25;100826.03;;;27.38;42.43
10510;BME280;5303;53.266;10.410;2023-06-19T10:44:05;100833.09;;;27.40;42.53
10510;BME280;5303;53.266;10.410;2023-06-19T10:46:34;100822.59;;;27.36;43.32
10510;BME280;5303;53.266;10.410;2023-06-19T10:49:06;100829.53;;;27.40;43.06
10510;BME280;5303;53.266;10.410;2023-06-19T10:51:36;100830.00;;;27.21;42.58
10510;BME280;5303;53.266;10.410;2023-06-19T10:54:02;100818.47;;;27.43;42.19
10510;BME280;5303;53.266;10.410;2023-06-19T10:56:28;100816.31;;;27.35;42.81
10510;BME280;5303;53.266;10.410;2023-06-19T10:59:07;100820.81;;;27.47;43.00
10510;BME280;5303;53.266;10.410;2023-06-19T11:01:37;100821.50;;;27.38;43.23
10510;BME280;5303;53.266;10.410;2023-06-19T11:04:05;100813.97;;;27.54;41.93
10510;BME280;5303;53.266;10.410;2023-06-19T11:06:32;100811.38;;;27.66;40.31
10510;BME280;5303;53.266;10.410;2023-06-19T11:08:57;100811.16;;;27.93;40.55
10510;BME280;5303;53.266;10.410;2023-06-19T11:11:22;100813.03;;;28.03;39.34
10510;BME280;5303;53.266;10.410;2023-06-19T11:13:48;100819.66;;;28.23;39.08
10510;BME280;5303;53.266;10.410;2023-06-19T11:16:16;100818.22;;;28.06;38.90
10510;BME280;5303;53.266;10.410;2023-06-19T11:18:41;100816.91;;;28.12;38.15
10510;BME280;5303;53.266;10.410;2023-06-19T11:21:07;100816.03;;;28.11;38.91
10510;BME280;5303;53.266;10.410;2023-06-19T11:23:32;100818.81;;;28.23;38.17
10510;BME280;5303;53.266;10.410;2023-06-19T11:26:04;100812.06;;;28.28;38.06
10510;BME280;5303;53.266;10.410;2023-06-19T11:28:29;100808.16;;;28.20;38.03
10510;BME280;5303;53.266;10.410;2023-06-19T11:31:00;100817.78;;;28.12;38.75
10510;BME280;5303;53.266;10.410;2023-06-19T11:33:26;100814.94;;;28.14;38.67
10510;BME280;5303;53.266;10.410;2023-06-19T11:35:53;100814.78;;;28.04;39.22
10510;BME280;5303;53.266;10.410;2023-06-19T11:38:26;100814.06;;;28.13;38.86
10510;BME280;5303;53.266;10.410;2023-06-19T11:40:52;100810.88;;;28.20;38.82
10510;BME280;5303;53.266;10.410;2023-06-19T11:43:24;100812.22;;;28.38;38.26
10510;BME280;5303;53.266;10.410;2023-06-19T11:45:50;100804.09;;;28.60;37.12
10510;BME280;5303;53.266;10.410;2023-06-19T11:48:26;100816.66;;;28.50;37.99
10510;BME280;5303;53.266;10.410;2023-06-19T11:50:52;100817.34;;;28.65;37.12
10510;BME280;5303;53.266;10.410;2023-06-19T11:53:22;100813.25;;;28.70;37.38
10510;BME280;5303;53.266;10.410;2023-06-19T11:55:47;100814.63;;;28.65;37.27
10510;BME280;5303;53.266;10.410;2023-06-19T11:58:13;100802.03;;;28.53;37.81
10510;BME280;5303;53.266;10.410;2023-06-19T12:00:40;100817.06;;;28.57;37.46
10510;BME280;5303;53.266;10.410;2023-06-19T12:03:06;100803.72;;;28.43;38.04
10510;BME280;5303;53.266;10.410;2023-06-19T12:05:31;100803.22;;;28.49;36.61
10510;BME280;5303;53.266;10.410;2023-06-19T12:07:57;100800.78;;;28.57;37.17
10510;BME280;5303;53.266;10.410;2023-06-19T12:10:22;100796.47;;;28.54;36.70
10510;BME280;5303;53.266;10.410;2023-06-19T12:12:47;100799.44;;;28.51;36.50
10510;BME280;5303;53.266;10.410;2023-06-19T12:15:13;100807.06;;;28.57;36.14
10510;BME280;5303;53.266;10.410;2023-06-19T12:17:38;100803.50;;;28.68;35.95
10510;BME280;5303;53.266;10.410;2023-06-19T12:20:04;100811.50;;;28.47;36.97
10510;BME280;5303;53.266;10.410;2023-06-19T12:22:33;100815.84;;;28.26;38.05
10510;BME280;5303;53.266;10.410;2023-06-19T12:24:59;100819.00;;;28.20;38.34
10510;BME280;5303;53.266;10.410;2023-06-19T12:27:24;100810.28;;;28.27;38.02
10510;BME280;5303;53.266;10.410;2023-06-19T12:29:50;100815.84;;;28.26;38.34
10510;BME280;5303;53.266;10.410;2023-06-19T12:32:15;100808.94;;;28.68;37.73
10510;BME280;5303;53.266;10.410;2023-06-19T12:34:40;100812.53;;;28.80;38.81
10510;BME280;5303;53.266;10.410;2023-06-19T12:37:07;100804.19;;;28.94;38.19
10510;BME280;5303;53.266;10.410;2023-06-19T12:39:33;100818.03;;;29.13;37.81
10510;BME280;5303;53.266;10.410;2023-06-19T12:41:58;100805.41;;;29.46;36.36
10510;BME280;5303;53.266;10.410;2023-06-19T12:44:23;100807.28;;;29.34;37.16
10510;BME280;5303;53.266;10.410;2023-06-19T12:46:50;100800.22;;;29.32;37.37
10510;BME280;5303;53.266;10.410;2023-06-19T12:49:15;100811.19;;;29.41;35.78
10510;BME280;5303;53.266;10.410;2023-06-19T12:51:40;100815.78;;;29.30;36.88